Mabelvale, Arkansas
Current Conditions -  °F | °C
As of 8:53 AM on Friday 31 Oct 2014 (Local Time) from KLIT Reporting Station
Clear Clear  
Wind Chill: 56°   Ceiling: Unl
Heat Index: 56°   Visibility: 10mi
Dew Point: 42°   Wind: 18mph
Humidity: 60%   Direction: 340°NNW
Pressure: 30.19"   Gusts: NA
Location:  34.66°N, 92.39°W
Report Text: KLIT 311353Z 34016KT 10SM CLR 13/06 A3019 RMK AO2 SLP224 T01330056
Loading
Personal Weather Stations






























Interactive Weather Map
Tropical Storm Tracking
New forecast layout! Learn more

10-Day Weather Forecast

Advertisements
Track Severe Weather on mobile